createdAt,value
2023-09-08T00:03:04.449Z,20.90
2023-09-08T00:07:08.100Z,21.00
2023-09-08T00:11:11.714Z,20.90
2023-09-08T00:15:15.317Z,21.00
2023-09-08T00:19:18.834Z,20.90
2023-09-08T00:23:22.366Z,20.80
2023-09-08T00:27:26.039Z,20.80
2023-09-08T00:31:29.546Z,20.70
2023-09-08T00:35:33.301Z,20.80
2023-09-08T00:39:37.739Z,20.80
2023-09-08T00:43:41.318Z,20.90
2023-09-08T00:47:45.346Z,20.90
2023-09-08T00:51:50.061Z,20.90
2023-09-08T00:55:54.572Z,20.90
2023-09-08T00:59:58.660Z,20.90
2023-09-08T01:04:04.006Z,20.90
2023-09-08T01:08:08.984Z,20.80
2023-09-08T01:12:12.891Z,20.70
2023-09-08T01:16:16.591Z,20.60
2023-09-08T01:20:25.895Z,20.40
2023-09-08T01:24:58.895Z,20.30
2023-09-08T01:29:05.191Z,20.10
2023-09-08T01:33:10.333Z,20.00
2023-09-08T01:37:14.651Z,19.80
2023-09-08T01:41:18.240Z,19.70
2023-09-08T01:45:21.949Z,19.60
2023-09-08T01:49:26.150Z,19.60
2023-09-08T01:53:29.613Z,19.50
2023-09-08T01:57:33.943Z,19.30
2023-09-08T02:01:38.215Z,19.30
2023-09-08T02:05:42.027Z,19.30
2023-09-08T02:09:46.804Z,19.40
2023-09-08T02:13:50.389Z,19.50
2023-09-08T02:17:58.312Z,19.70
2023-09-08T02:22:01.872Z,19.90
2023-09-08T02:26:07.091Z,20.10
2023-09-08T02:30:11.449Z,20.30
2023-09-08T02:34:15.095Z,20.40
2023-09-08T02:38:18.996Z,20.60
2023-09-08T02:42:22.602Z,20.70
2023-09-08T02:46:26.357Z,20.80
2023-09-08T02:50:31.233Z,20.90
2023-09-08T02:54:35.738Z,20.90
2023-09-08T02:58:39.823Z,20.90
2023-09-08T03:02:43.592Z,20.90
2023-09-08T03:06:47.190Z,20.90
2023-09-08T03:10:50.896Z,21.00
2023-09-08T03:14:55.821Z,21.00
2023-09-08T03:19:00.109Z,21.00
2023-09-08T03:23:03.619Z,21.00
2023-09-08T03:27:07.344Z,21.10
2023-09-08T03:31:11.578Z,21.10
2023-09-08T03:35:16.053Z,21.10
2023-09-08T03:39:21.032Z,21.10
2023-09-08T03:43:24.791Z,21.10
2023-09-08T03:47:28.628Z,21.00
2023-09-08T03:51:33.070Z,21.00
2023-09-08T03:55:36.756Z,21.00
2023-09-08T03:59:42.258Z,21.00
2023-09-08T04:03:45.796Z,21.00
2023-09-08T04:07:50.255Z,21.00
2023-09-08T04:11:56.540Z,20.90
2023-09-08T04:16:00.236Z,20.90
2023-09-08T04:20:06.487Z,20.90
2023-09-08T04:24:12.159Z,20.80
2023-09-08T04:28:15.732Z,20.80
2023-09-08T04:32:19.518Z,20.80
2023-09-08T04:32:25.177Z,18.60
2023-09-08T04:36:23.155Z,20.80
2023-09-08T04:36:32.103Z,18.50
2023-09-08T04:40:26.900Z,20.80
2023-09-08T04:40:36.185Z,18.40
2023-09-08T04:44:31.271Z,20.70
2023-09-08T04:44:40.719Z,18.40
2023-09-08T04:48:35.410Z,20.70
2023-09-08T04:48:45.362Z,18.30
2023-09-08T04:52:39.991Z,20.60
2023-09-08T04:52:48.997Z,18.30
2023-09-08T04:56:44.144Z,20.60
2023-09-08T04:56:55.369Z,18.20
2023-09-08T05:00:48.771Z,20.60
2023-09-08T05:01:01.981Z,18.00
2023-09-08T05:04:53.472Z,20.60
2023-09-08T05:05:06.660Z,17.80
2023-09-08T05:08:59.150Z,20.60
2023-09-08T05:09:10.704Z,17.60
2023-09-08T05:13:09.163Z,20.50
2023-09-08T05:13:28.975Z,17.60
2023-09-08T05:17:17.635Z,20.50
2023-09-08T05:17:35.629Z,17.60
2023-09-08T05:21:21.449Z,20.40
2023-09-08T05:21:39.797Z,17.60
2023-09-08T05:25:25.415Z,20.50
2023-09-08T05:25:44.523Z,17.70
2023-09-08T05:29:29.589Z,20.50
2023-09-08T05:29:48.398Z,18.00
2023-09-08T05:33:33.734Z,20.60
2023-09-08T05:33:52.817Z,18.80
2023-09-08T05:37:37.512Z,20.70
2023-09-08T05:37:56.950Z,19.60
2023-09-08T05:41:41.237Z,20.70
2023-09-08T05:42:01.598Z,20.50
2023-09-08T05:45:45.704Z,20.80
2023-09-08T05:46:05.726Z,21.20
2023-09-08T05:49:49.851Z,21.10
2023-09-08T05:50:10.162Z,21.90
2023-09-08T05:53:54.339Z,21.50
2023-09-08T05:54:14.744Z,22.40
2023-09-08T05:57:58.091Z,21.90
2023-09-08T05:58:19.386Z,22.90
2023-09-08T06:02:03.575Z,22.10
2023-09-08T06:02:23.921Z,23.60
2023-09-08T06:06:07.289Z,22.40
2023-09-08T06:06:29.819Z,24.20
2023-09-08T06:10:11.389Z,22.50
2023-09-08T06:10:33.785Z,24.80
2023-09-08T06:14:15.541Z,22.70
2023-09-08T06:14:37.882Z,25.40
2023-09-08T06:18:23.027Z,22.90
2023-09-08T06:18:41.853Z,25.90
2023-09-08T06:22:26.642Z,23.30
2023-09-08T06:22:50.938Z,26.20
2023-09-08T06:26:30.484Z,23.60
2023-09-08T06:26:54.830Z,26.50
2023-09-08T06:30:34.457Z,24.00
2023-09-08T06:31:01.158Z,27.00
2023-09-08T06:34:39.233Z,24.40
2023-09-08T06:35:05.699Z,27.30
2023-09-08T06:38:43.272Z,24.60
2023-09-08T06:39:10.712Z,26.60
2023-09-08T06:42:48.306Z,24.80
2023-09-08T06:43:24.288Z,25.40
2023-09-08T06:47:04.757Z,25.00
2023-09-08T06:47:35.374Z,24.60
2023-09-08T06:51:09.282Z,25.10
2023-09-08T06:51:40.436Z,24.00
2023-09-08T06:55:17.689Z,25.20
2023-09-08T06:55:45.705Z,23.80
2023-09-08T06:59:22.215Z,25.40
2023-09-08T06:59:50.487Z,23.70
2023-09-08T07:03:27.795Z,25.60
2023-09-08T07:03:54.592Z,23.70
2023-09-08T07:07:32.883Z,25.90
2023-09-08T07:07:59.145Z,23.60
2023-09-08T07:11:36.453Z,26.20
2023-09-08T07:12:03.592Z,23.70
2023-09-08T07:15:40.196Z,26.60
2023-09-08T07:16:08.342Z,23.80
2023-09-08T07:19:45.677Z,26.90
2023-09-08T07:20:14.354Z,23.80
2023-09-08T07:23:55.289Z,27.30
2023-09-08T07:24:18.772Z,23.90
2023-09-08T07:27:58.872Z,27.60
2023-09-08T07:28:24.160Z,24.00
2023-09-08T07:32:04.693Z,27.90
2023-09-08T07:32:30.458Z,24.10
2023-09-08T07:36:09.819Z,28.00
2023-09-08T07:36:34.404Z,24.20
2023-09-08T07:40:15.160Z,28.10
2023-09-08T07:40:39.080Z,24.30
2023-09-08T07:44:19.218Z,28.20
2023-09-08T07:44:46.576Z,24.40
2023-09-08T07:48:23.138Z,28.30
2023-09-08T07:52:26.640Z,28.40
2023-09-08T07:56:31.092Z,28.60
2023-09-08T08:00:34.658Z,28.80
2023-09-08T08:04:38.277Z,29.00
2023-09-08T08:08:41.978Z,29.20
2023-09-08T08:12:45.936Z,29.30
2023-09-08T08:16:49.546Z,29.50
2023-09-08T08:20:53.126Z,29.50
2023-09-08T08:24:56.662Z,29.50
2023-09-08T08:29:00.317Z,29.60
2023-09-08T08:33:05.697Z,29.70
2023-09-08T08:37:09.299Z,29.70
2023-09-08T08:41:12.766Z,29.80
2023-09-08T08:45:20.625Z,29.90
2023-09-08T08:49:24.759Z,30.00
2023-09-08T08:53:29.373Z,30.10
2023-09-08T08:57:33.761Z,30.20
2023-09-08T09:01:38.185Z,30.40
2023-09-08T09:09:18.208Z,30.60
2023-09-08T09:10:08.778Z,30.70
2023-09-08T09:14:12.342Z,30.80
2023-09-08T09:18:16.054Z,31.00
2023-09-08T09:22:25.793Z,31.20
2023-09-08T09:26:31.849Z,31.50
2023-09-08T09:30:57.295Z,31.70
2023-09-08T09:35:02.528Z,31.90
2023-09-08T09:39:06.108Z,32.00
2023-09-08T09:43:13.056Z,32.10
2023-09-08T09:47:17.796Z,32.30
2023-09-08T09:51:21.795Z,32.60
2023-09-08T09:55:26.232Z,32.60
2023-09-08T09:59:30.248Z,32.70
2023-09-08T10:03:35.361Z,33.00
2023-09-08T10:07:39.539Z,33.00
2023-09-08T10:11:57.579Z,33.00
2023-09-08T10:16:03.648Z,33.10
2023-09-08T10:20:12.464Z,33.20
2023-09-08T10:24:26.216Z,33.50
2023-09-08T10:28:30.288Z,33.60
2023-09-08T10:32:36.880Z,33.40
2023-09-08T10:36:40.656Z,33.50
2023-09-08T10:40:44.198Z,33.60
2023-09-08T10:44:51.100Z,33.80
2023-09-08T10:48:56.165Z,33.80
2023-09-08T10:53:18.535Z,33.90
2023-09-08T10:57:27.472Z,34.00
2023-09-08T11:01:31.724Z,34.10
2023-09-08T11:05:36.232Z,34.10
2023-09-08T11:09:39.708Z,34.10
2023-09-08T11:13:47.925Z,34.10
2023-09-08T11:17:53.460Z,34.20
2023-09-08T11:21:58.214Z,34.20
2023-09-08T11:26:02.204Z,34.30
2023-09-08T11:30:08.227Z,34.30
2023-09-08T11:34:15.340Z,34.40
2023-09-08T11:38:18.906Z,34.60
2023-09-08T11:42:23.928Z,34.90
2023-09-08T11:46:28.733Z,35.10
2023-09-08T11:50:33.061Z,35.10
2023-09-08T11:54:48.551Z,35.20
2023-09-08T11:58:59.960Z,35.60
2023-09-08T12:03:13.732Z,36.00
2023-09-08T12:07:18.124Z,36.20
2023-09-08T12:10:19.894Z,28.90
2023-09-08T12:11:21.872Z,36.20
2023-09-08T12:14:41.690Z,28.80
2023-09-08T12:15:36.687Z,36.30
2023-09-08T12:19:40.334Z,36.30
2023-09-08T12:23:54.324Z,36.30
2023-09-08T12:25:04.727Z,29.00
2023-09-08T12:28:00.600Z,36.30
2023-09-08T12:29:15.240Z,29.10
2023-09-08T12:32:05.729Z,36.40
2023-09-08T12:33:22.118Z,29.30
2023-09-08T12:36:20.116Z,36.60
2023-09-08T12:37:31.148Z,29.20
2023-09-08T12:40:23.894Z,36.50
2023-09-08T12:41:35.362Z,29.20
2023-09-08T12:44:28.148Z,36.60
2023-09-08T12:45:45.407Z,29.20
2023-09-08T12:48:31.805Z,36.60
2023-09-08T12:49:53.503Z,29.20
2023-09-08T12:52:35.442Z,36.60
2023-09-08T12:53:57.631Z,29.20
2023-09-08T12:56:38.983Z,36.80
2023-09-08T12:58:02.261Z,29.20
2023-09-08T13:00:42.835Z,37.00
2023-09-08T13:02:06.588Z,29.30
2023-09-08T13:04:50.092Z,37.20
2023-09-08T13:06:13.146Z,29.40
2023-09-08T13:08:53.912Z,37.10
2023-09-08T13:10:19.554Z,29.40
2023-09-08T13:12:57.595Z,37.40
2023-09-08T13:14:26.623Z,29.40
2023-09-08T13:17:01.276Z,37.50
2023-09-08T13:18:37.202Z,29.40
2023-09-08T13:21:04.958Z,37.50
2023-09-08T13:22:41.653Z,29.40
2023-09-08T13:25:09.090Z,37.30
2023-09-08T13:26:45.529Z,29.30
2023-09-08T13:29:12.582Z,37.10
2023-09-08T13:30:49.575Z,29.30
2023-09-08T13:33:16.366Z,37.20
2023-09-08T13:34:53.703Z,29.30
2023-09-08T13:37:20.021Z,37.20
2023-09-08T13:38:57.912Z,29.20
2023-09-08T13:41:23.835Z,37.10
2023-09-08T13:43:01.868Z,29.20
2023-09-08T13:45:27.671Z,37.10
2023-09-08T13:47:06.218Z,29.20
2023-09-08T13:49:32.414Z,37.00
2023-09-08T13:51:10.915Z,29.20
2023-09-08T13:53:43.439Z,37.10
2023-09-08T13:55:31.688Z,29.30
2023-09-08T13:57:50.731Z,37.40
2023-09-08T13:59:42.546Z,29.20
2023-09-08T14:02:17.237Z,37.60
2023-09-08T14:06:21.924Z,37.80
2023-09-08T14:07:59.066Z,29.20
2023-09-08T14:14:41.636Z,37.50
2023-09-08T14:16:18.977Z,29.10
2023-09-08T14:18:45.276Z,37.50
2023-09-08T14:20:23.089Z,29.10
2023-09-08T14:22:48.905Z,37.30
2023-09-08T14:24:27.340Z,29.10
2023-09-08T14:26:53.524Z,37.00
2023-09-08T14:28:33.748Z,29.10
2023-09-08T14:30:56.919Z,36.80
2023-09-08T14:32:37.557Z,29.10
2023-09-08T14:35:00.456Z,36.60
2023-09-08T14:36:41.562Z,29.10
2023-09-08T14:39:05.336Z,36.60
2023-09-08T14:40:46.315Z,29.00
2023-09-08T14:43:11.097Z,36.40
2023-09-08T14:44:52.972Z,29.00
2023-09-08T14:47:14.860Z,36.20
2023-09-08T14:48:56.803Z,29.00
2023-09-08T14:51:18.476Z,36.10
2023-09-08T14:53:00.645Z,28.90
2023-09-08T14:55:22.273Z,35.90
2023-09-08T14:57:04.704Z,28.90
2023-09-08T14:59:25.770Z,36.00
2023-09-08T15:03:29.450Z,35.80
2023-09-08T15:05:27.642Z,28.90
2023-09-08T15:07:33.114Z,35.60
2023-09-08T15:09:32.085Z,28.80
2023-09-08T15:11:36.686Z,35.50
2023-09-08T15:13:37.381Z,28.70
2023-09-08T15:15:40.163Z,35.50
2023-09-08T15:17:43.573Z,28.60
2023-09-08T15:19:43.801Z,35.40
2023-09-08T15:21:47.728Z,28.60
2023-09-08T15:23:47.275Z,35.10
2023-09-08T15:25:59.833Z,28.60
2023-09-08T15:27:51.079Z,34.90
2023-09-08T15:30:05.919Z,28.50
2023-09-08T15:31:54.840Z,34.70
2023-09-08T15:34:11.441Z,28.50
2023-09-08T15:35:59.172Z,34.50
2023-09-08T15:38:16.420Z,28.40
2023-09-08T15:40:05.150Z,34.20
2023-09-08T15:42:20.582Z,28.30
2023-09-08T15:44:08.969Z,33.90
2023-09-08T15:46:24.822Z,28.20
2023-09-08T15:48:12.532Z,33.60
2023-09-08T15:50:28.910Z,28.20
2023-09-08T15:52:17.219Z,33.40
2023-09-08T15:54:33.328Z,28.10
2023-09-08T15:56:20.952Z,33.10
2023-09-08T15:58:38.921Z,28.00
2023-09-08T16:00:24.942Z,32.80
2023-09-08T16:02:45.212Z,27.90
2023-09-08T16:04:28.879Z,32.60
2023-09-08T16:06:49.765Z,27.80
2023-09-08T16:08:35.004Z,32.40
2023-09-08T16:10:53.934Z,27.80
2023-09-08T16:12:38.540Z,32.20
2023-09-08T16:14:57.973Z,27.70
2023-09-08T16:16:42.171Z,32.00
2023-09-08T16:19:02.045Z,27.60
2023-09-08T16:20:45.838Z,31.80
2023-09-08T16:23:06.525Z,27.50
2023-09-08T16:24:49.413Z,31.60
2023-09-08T16:27:10.633Z,27.40
2023-09-08T16:28:52.898Z,31.40
2023-09-08T16:31:14.808Z,27.40
2023-09-08T16:32:56.856Z,31.10
2023-09-08T16:35:18.973Z,27.20
2023-09-08T16:37:00.594Z,31.00
2023-09-08T16:39:23.007Z,27.20
2023-09-08T16:41:04.200Z,30.90
2023-09-08T16:43:27.049Z,27.10
2023-09-08T16:45:08.043Z,30.80
2023-09-08T16:47:31.642Z,27.00
2023-09-08T16:49:11.637Z,30.60
2023-09-08T16:51:35.673Z,26.90
2023-09-08T16:53:15.248Z,30.40
2023-09-08T16:55:39.765Z,26.80
2023-09-08T16:57:19.355Z,30.10
2023-09-08T16:59:46.974Z,26.60
2023-09-08T17:01:22.905Z,30.00
2023-09-08T17:03:51.353Z,26.50
2023-09-08T17:05:26.492Z,29.90
2023-09-08T17:07:58.168Z,26.30
2023-09-08T17:09:30.342Z,29.70
2023-09-08T17:12:02.267Z,26.20
2023-09-08T17:13:35.416Z,29.60
2023-09-08T17:16:30.626Z,26.10
2023-09-08T17:17:39.183Z,29.40
2023-09-08T17:20:34.903Z,26.00
2023-09-08T17:21:42.858Z,29.20
2023-09-08T17:24:42.573Z,25.80
2023-09-08T17:25:47.441Z,29.10
2023-09-08T17:28:46.454Z,25.60
2023-09-08T17:29:51.782Z,28.90
2023-09-08T17:32:50.397Z,25.50
2023-09-08T17:33:55.303Z,28.70
2023-09-08T17:36:57.383Z,25.40
2023-09-08T17:37:58.930Z,28.60
2023-09-08T17:41:02.762Z,25.20
2023-09-08T17:42:02.533Z,28.40
2023-09-08T17:45:07.912Z,25.00
2023-09-08T17:46:06.206Z,28.20
2023-09-08T17:49:11.899Z,24.80
2023-09-08T17:50:10.470Z,28.10
2023-09-08T17:53:15.806Z,24.70
2023-09-08T17:54:14.124Z,28.00
2023-09-08T17:57:19.648Z,24.60
2023-09-08T17:58:17.763Z,27.80
2023-09-08T18:01:23.634Z,24.50
2023-09-08T18:02:21.349Z,27.60
2023-09-08T18:05:28.135Z,24.30
2023-09-08T18:06:24.924Z,27.50
2023-09-08T18:09:32.149Z,24.20
2023-09-08T18:10:28.458Z,27.30
2023-09-08T18:13:36.105Z,24.00
2023-09-08T18:14:32.021Z,27.10
2023-09-08T18:17:41.608Z,23.90
2023-09-08T18:18:38.067Z,27.00
2023-09-08T18:21:45.575Z,23.80
2023-09-08T18:22:41.750Z,26.70
2023-09-08T18:25:49.754Z,23.60
2023-09-08T18:26:45.395Z,26.60
2023-09-08T18:29:53.788Z,23.50
2023-09-08T18:30:51.402Z,26.50
2023-09-08T18:33:58.881Z,23.50
2023-09-08T18:34:55.215Z,26.40
2023-09-08T18:38:03.201Z,23.40
2023-09-08T18:38:58.881Z,26.30
2023-09-08T18:42:07.228Z,23.30
2023-09-08T18:43:02.427Z,26.10
2023-09-08T18:46:11.500Z,23.10
2023-09-08T18:47:05.941Z,26.00
2023-09-08T18:50:15.572Z,22.90
2023-09-08T18:51:10.276Z,25.90
2023-09-08T18:54:19.662Z,22.60
2023-09-08T18:55:13.876Z,25.80
2023-09-08T18:58:26.459Z,22.50
2023-09-08T18:59:17.523Z,25.60
2023-09-08T19:02:30.336Z,22.30
2023-09-08T19:03:21.987Z,25.50
2023-09-08T19:06:34.319Z,22.10
2023-09-08T19:07:25.649Z,25.20
2023-09-08T19:10:40.347Z,22.00
2023-09-08T19:11:29.334Z,25.00
2023-09-08T19:14:44.529Z,21.90
2023-09-08T19:15:33.092Z,24.80
2023-09-08T19:18:48.245Z,21.80
2023-09-08T19:19:36.680Z,24.70
2023-09-08T19:22:54.095Z,21.80
2023-09-08T19:23:40.172Z,24.60
2023-09-08T19:26:57.920Z,21.90
2023-09-08T19:27:43.783Z,24.50
2023-09-08T19:31:01.738Z,21.90
2023-09-08T19:31:47.339Z,24.30
2023-09-08T19:35:06.458Z,21.90
2023-09-08T19:35:51.847Z,24.10
2023-09-08T19:39:10.415Z,21.90
2023-09-08T19:39:55.404Z,23.90
2023-09-08T19:43:14.210Z,21.80
2023-09-08T19:43:59.025Z,23.70
2023-09-08T19:47:18.021Z,21.60
2023-09-08T19:48:02.655Z,23.60
2023-09-08T19:51:22.896Z,21.50
2023-09-08T19:52:07.055Z,23.30
2023-09-08T19:55:27.166Z,21.50
2023-09-08T19:56:10.677Z,23.10
2023-09-08T19:59:30.963Z,21.50
2023-09-08T20:00:15.826Z,22.90
2023-09-08T20:03:37.876Z,21.30
2023-09-08T20:04:19.346Z,22.70
2023-09-08T20:07:42.245Z,21.10
2023-09-08T20:08:23.849Z,22.70
2023-09-08T20:11:48.256Z,20.80
2023-09-08T20:12:27.328Z,22.70
2023-09-08T20:16:07.952Z,20.60
2023-09-08T20:16:30.934Z,22.70
2023-09-08T20:20:12.347Z,20.40
2023-09-08T20:20:34.459Z,22.70
2023-09-08T20:24:16.137Z,20.10
2023-09-08T20:24:38.125Z,22.70
2023-09-08T20:28:20.032Z,20.00
2023-09-08T20:28:41.746Z,22.60
2023-09-08T20:32:26.396Z,19.70
2023-09-08T20:32:45.458Z,22.50
2023-09-08T20:36:30.721Z,19.50
2023-09-08T20:36:48.962Z,22.30
2023-09-08T20:40:34.574Z,19.30
2023-09-08T20:40:53.680Z,22.20
2023-09-08T20:44:41.526Z,19.20
2023-09-08T20:44:57.408Z,22.00
2023-09-08T20:48:45.204Z,19.00
2023-09-08T20:49:00.933Z,21.70
2023-09-08T20:52:48.966Z,18.90
2023-09-08T20:53:04.651Z,21.60
2023-09-08T20:56:52.704Z,18.80
2023-09-08T20:57:08.299Z,21.40
2023-09-08T21:00:57.028Z,18.70
2023-09-08T21:01:12.741Z,21.30
2023-09-08T21:05:00.996Z,18.50
2023-09-08T21:05:16.474Z,21.10
2023-09-08T21:09:05.770Z,18.50
2023-09-08T21:09:20.520Z,20.80
2023-09-08T21:13:09.955Z,18.40
2023-09-08T21:13:24.681Z,20.60
2023-09-08T21:17:13.842Z,18.40
2023-09-08T21:17:28.245Z,20.40
2023-09-08T21:21:17.575Z,18.40
2023-09-08T21:21:31.865Z,20.10
2023-09-08T21:25:21.274Z,18.40
2023-09-08T21:25:36.118Z,20.00
2023-09-08T21:29:25.125Z,18.30
2023-09-08T21:29:39.701Z,19.80
2023-09-08T21:33:28.760Z,18.20
2023-09-08T21:33:43.542Z,19.60
2023-09-08T21:37:32.723Z,18.00
2023-09-08T21:37:47.323Z,19.50
2023-09-08T21:41:36.452Z,17.80
2023-09-08T21:41:50.916Z,19.20
2023-09-08T21:45:40.181Z,17.70
2023-09-08T21:46:03.758Z,19.20
2023-09-08T21:49:45.215Z,17.70
2023-09-08T21:50:07.753Z,19.10
2023-09-08T21:53:52.533Z,17.60
2023-09-08T21:54:11.708Z,19.10
2023-09-08T21:58:15.103Z,17.50
2023-09-08T21:58:15.303Z,19.00
2023-09-08T22:02:18.968Z,18.80
2023-09-08T22:02:44.772Z,17.50
2023-09-08T22:06:22.587Z,18.70
2023-09-08T22:07:00.195Z,17.60
2023-09-08T22:10:26.916Z,18.60
2023-09-08T22:11:26.968Z,17.60
2023-09-08T22:14:33.972Z,18.50
2023-09-08T22:15:30.777Z,17.90
2023-09-08T22:18:37.808Z,18.40
2023-09-08T22:19:34.497Z,18.00
2023-09-08T22:22:42.013Z,18.20
2023-09-08T22:23:38.435Z,18.00
2023-09-08T22:26:45.716Z,18.20
2023-09-08T22:27:42.511Z,18.00
2023-09-08T22:30:49.240Z,18.00
2023-09-08T22:31:46.383Z,17.70
2023-09-08T22:34:52.823Z,17.90
2023-09-08T22:35:50.226Z,17.50
2023-09-08T22:38:56.547Z,17.80
2023-09-08T22:39:59.452Z,17.30
2023-09-08T22:43:00.250Z,17.70
2023-09-08T22:44:03.363Z,17.10
2023-09-08T22:47:11.567Z,17.70
2023-09-08T22:48:07.252Z,17.00
2023-09-08T22:51:15.093Z,17.70
2023-09-08T22:52:16.043Z,16.80
2023-09-08T22:55:25.693Z,17.50
2023-09-08T22:56:22.617Z,16.60
2023-09-08T22:59:29.677Z,17.30
2023-09-08T23:00:51.218Z,16.50
2023-09-08T23:03:33.616Z,17.20
2023-09-08T23:05:05.744Z,16.30
2023-09-08T23:07:37.273Z,17.20
2023-09-08T23:09:09.685Z,16.20
2023-09-08T23:11:40.840Z,17.10
2023-09-08T23:13:13.401Z,16.10
2023-09-08T23:15:44.449Z,17.10
2023-09-08T23:17:17.060Z,16.10
2023-09-08T23:19:48.039Z,16.90
2023-09-08T23:21:20.875Z,16.10
2023-09-08T23:23:52.494Z,16.80
2023-09-08T23:25:24.794Z,16.10
2023-09-08T23:27:56.508Z,16.80
2023-09-08T23:29:28.551Z,16.10
2023-09-08T23:32:00.101Z,16.60
2023-09-08T23:36:03.722Z,16.60
2023-09-08T23:40:09.057Z,16.40
2023-09-08T23:44:12.725Z,16.40
2023-09-08T23:48:16.546Z,16.30
2023-09-08T23:52:20.815Z,16.20
2023-09-08T23:56:24.579Z,16.20
